sensor_id;sensor_type;location;lat;lon;timestamp;pressure;altitude;pressure_sealevel;temperature;humidity
21431;BME280;10876;49.038;10.608;2023-03-14T00:01:39;97952.03;;;8.61;100.00
21431;BME280;10876;49.038;10.608;2023-03-14T00:04:05;97852.16;;;8.60;100.00
21431;BME280;10876;49.038;10.608;2023-03-14T00:06:32;97809.16;;;8.56;100.00
21431;BME280;10876;49.038;10.608;2023-03-14T00:09:00;97794.38;;;8.57;100.00
21431;BME280;10876;49.038;10.608;2023-03-14T00:11:27;97775.75;;;8.60;100.00
21431;BME280;10876;49.038;10.608;2023-03-14T00:13:55;97770.94;;;8.56;100.00
21431;BME280;10876;49.038;10.608;2023-03-14T00:16:22;97778.97;;;8.62;100.00
21431;BME280;10876;49.038;10.608;2023-03-14T00:18:48;97777.19;;;8.66;100.00
21431;BME280;10876;49.038;10.608;2023-03-14T00:21:15;97725.97;;;8.63;100.00
21431;BME280;10876;49.038;10.608;2023-03-14T00:23:42;97723.53;;;8.70;100.00
21431;BME280;10876;49.038;10.608;2023-03-14T00:26:13;97701.72;;;8.70;100.00
21431;BME280;10876;49.038;10.608;2023-03-14T00:28:41;97685.81;;;8.72;100.00
21431;BME280;10876;49.038;10.608;2023-03-14T00:31:12;97603.44;;;8.70;100.00
21431;BME280;10876;49.038;10.608;2023-03-14T00:33:39;97540.66;;;8.70;100.00
21431;BME280;10876;49.038;10.608;2023-03-14T00:36:08;97467.44;;;8.72;100.00
21431;BME280;10876;49.038;10.608;2023-03-14T00:38:36;97383.97;;;8.71;100.00
21431;BME280;10876;49.038;10.608;2023-03-14T00:41:04;97270.13;;;8.71;100.00
21431;BME280;10876;49.038;10.608;2023-03-14T00:43:33;97222.47;;;8.69;100.00
21431;BME280;10876;49.038;10.608;2023-03-14T00:46:00;97177.66;;;8.70;100.00
21431;BME280;10876;49.038;10.608;2023-03-14T00:48:27;97131.41;;;8.73;100.00
21431;BME280;10876;49.038;10.608;2023-03-14T00:50:54;97119.03;;;8.76;100.00
21431;BME280;10876;49.038;10.608;2023-03-14T00:53:21;97118.34;;;8.79;100.00
21431;BME280;10876;49.038;10.608;2023-03-14T00:55:48;97100.34;;;8.78;100.00
21431;BME280;10876;49.038;10.608;2023-03-14T00:58:16;97066.00;;;8.77;100.00
21431;BME280;10876;49.038;10.608;2023-03-14T01:00:45;97022.34;;;8.77;100.00
21431;BME280;10876;49.038;10.608;2023-03-14T01:03:13;96947.97;;;8.80;100.00
21431;BME280;10876;49.038;10.608;2023-03-14T01:05:40;96874.97;;;8.77;100.00
21431;BME280;10876;49.038;10.608;2023-03-14T01:08:07;96832.09;;;8.77;100.00
21431;BME280;10876;49.038;10.608;2023-03-14T01:10:34;96807.50;;;8.77;100.00
21431;BME280;10876;49.038;10.608;2023-03-14T01:13:01;96787.63;;;8.77;100.00
21431;BME280;10876;49.038;10.608;2023-03-14T01:15:28;96747.94;;;8.79;100.00
21431;BME280;10876;49.038;10.608;2023-03-14T01:17:56;96699.13;;;8.78;100.00
21431;BME280;10876;49.038;10.608;2023-03-14T01:20:22;96664.03;;;8.76;100.00
21431;BME280;10876;49.038;10.608;2023-03-14T01:22:49;96665.06;;;8.72;100.00
21431;BME280;10876;49.038;10.608;2023-03-14T01:25:16;96687.59;;;8.69;100.00
21431;BME280;10876;49.038;10.608;2023-03-14T01:27:43;96712.59;;;8.71;100.00
21431;BME280;10876;49.038;10.608;2023-03-14T01:30:12;96698.59;;;8.72;100.00
21431;BME280;10876;49.038;10.608;2023-03-14T01:32:39;96691.91;;;8.70;100.00
21431;BME280;10876;49.038;10.608;2023-03-14T01:35:07;96701.69;;;8.71;100.00
21431;BME280;10876;49.038;10.608;2023-03-14T01:37:34;96702.81;;;8.70;100.00
21431;BME280;10876;49.038;10.608;2023-03-14T01:40:01;96688.38;;;8.69;100.00
21431;BME280;10876;49.038;10.608;2023-03-14T01:42:31;96691.03;;;8.66;100.00
21431;BME280;10876;49.038;10.608;2023-03-14T01:44:59;96684.41;;;8.67;100.00
21431;BME280;10876;49.038;10.608;2023-03-14T01:47:26;96678.94;;;8.67;100.00
21431;BME280;10876;49.038;10.608;2023-03-14T01:49:56;96649.31;;;8.65;100.00
21431;BME280;10876;49.038;10.608;2023-03-14T01:52:28;96618.91;;;8.67;100.00
21431;BME280;10876;49.038;10.608;2023-03-14T01:54:59;96611.88;;;8.66;100.00
21431;BME280;10876;49.038;10.608;2023-03-14T01:57:30;96591.56;;;8.63;100.00
21431;BME280;10876;49.038;10.608;2023-03-14T02:00:01;96584.53;;;8.62;100.00
21431;BME280;10876;49.038;10.608;2023-03-14T02:02:30;96533.81;;;8.61;100.00
21431;BME280;10876;49.038;10.608;2023-03-14T02:04:57;96519.13;;;8.66;100.00
21431;BME280;10876;49.038;10.608;2023-03-14T02:07:32;96509.63;;;8.60;100.00
21431;BME280;10876;49.038;10.608;2023-03-14T02:10:01;96494.94;;;8.64;100.00
21431;BME280;10876;49.038;10.608;2023-03-14T02:12:30;96505.56;;;8.53;100.00
21431;BME280;10876;49.038;10.608;2023-03-14T02:14:56;96494.47;;;8.62;100.00
21431;BME280;10876;49.038;10.608;2023-03-14T02:17:24;96479.88;;;8.54;100.00
21431;BME280;10876;49.038;10.608;2023-03-14T02:20:03;96493.19;;;8.56;100.00
21431;BME280;10876;49.038;10.608;2023-03-14T02:22:35;96473.63;;;8.54;100.00
21431;BME280;10876;49.038;10.608;2023-03-14T02:25:08;96461.22;;;8.56;100.00
21431;BME280;10876;49.038;10.608;2023-03-14T02:27:36;96458.75;;;8.51;100.00
21431;BME280;10876;49.038;10.608;2023-03-14T02:30:06;96450.56;;;8.51;100.00
21431;BME280;10876;49.038;10.608;2023-03-14T02:32:36;96455.50;;;8.46;100.00
21431;BME280;10876;49.038;10.608;2023-03-14T02:35:08;96438.34;;;8.45;100.00
21431;BME280;10876;49.038;10.608;2023-03-14T02:37:40;96443.44;;;8.47;100.00
21431;BME280;10876;49.038;10.608;2023-03-14T02:40:08;96435.25;;;8.47;100.00
21431;BME280;10876;49.038;10.608;2023-03-14T02:42:37;96430.63;;;8.47;100.00
21431;BME280;10876;49.038;10.608;2023-03-14T02:45:36;96423.56;;;8.46;100.00
21431;BME280;10876;49.038;10.608;2023-03-14T02:48:06;96438.09;;;8.50;100.00
21431;BME280;10876;49.038;10.608;2023-03-14T02:50:34;96422.69;;;8.42;100.00
21431;BME280;10876;49.038;10.608;2023-03-14T02:53:01;96433.59;;;8.42;100.00
21431;BME280;10876;49.038;10.608;2023-03-14T02:55:28;96418.38;;;8.41;100.00
21431;BME280;10876;49.038;10.608;2023-03-14T02:57:56;96405.09;;;8.40;100.00
21431;BME280;10876;49.038;10.608;2023-03-14T03:00:23;96421.47;;;8.40;100.00
21431;BME280;10876;49.038;10.608;2023-03-14T03:02:50;96426.38;;;8.34;100.00
21431;BME280;10876;49.038;10.608;2023-03-14T03:05:17;96414.06;;;8.40;100.00
21431;BME280;10876;49.038;10.608;2023-03-14T03:07:43;96377.47;;;8.41;100.00
21431;BME280;10876;49.038;10.608;2023-03-14T03:10:10;96375.88;;;8.40;100.00
21431;BME280;10876;49.038;10.608;2023-03-14T03:12:37;96371.38;;;8.32;100.00
21431;BME280;10876;49.038;10.608;2023-03-14T03:15:06;96346.44;;;8.30;100.00
21431;BME280;10876;49.038;10.608;2023-03-14T03:17:33;96356.88;;;8.28;100.00
21431;BME280;10876;49.038;10.608;2023-03-14T03:20:00;96345.28;;;8.31;100.00
21431;BME280;10876;49.038;10.608;2023-03-14T03:22:29;96345.81;;;8.21;100.00
21431;BME280;10876;49.038;10.608;2023-03-14T03:24:55;96353.56;;;8.19;100.00
21431;BME280;10876;49.038;10.608;2023-03-14T03:27:22;96342.66;;;8.19;100.00
21431;BME280;10876;49.038;10.608;2023-03-14T03:29:49;96349.69;;;8.20;100.00
21431;BME280;10876;49.038;10.608;2023-03-14T03:32:17;96336.31;;;8.15;100.00
21431;BME280;10876;49.038;10.608;2023-03-14T03:34:43;96341.06;;;8.18;100.00
21431;BME280;10876;49.038;10.608;2023-03-14T03:37:10;96332.88;;;8.18;100.00
21431;BME280;10876;49.038;10.608;2023-03-14T03:39:37;96333.97;;;8.13;100.00
21431;BME280;10876;49.038;10.608;2023-03-14T03:42:04;96324.38;;;8.19;100.00
21431;BME280;10876;49.038;10.608;2023-03-14T03:44:30;96309.13;;;8.18;100.00
21431;BME280;10876;49.038;10.608;2023-03-14T03:46:57;96315.22;;;8.11;100.00
21431;BME280;10876;49.038;10.608;2023-03-14T03:49:28;96307.41;;;8.10;100.00
21431;BME280;10876;49.038;10.608;2023-03-14T03:51:55;96305.03;;;8.08;100.00
21431;BME280;10876;49.038;10.608;2023-03-14T03:54:21;96305.66;;;8.02;100.00
21431;BME280;10876;49.038;10.608;2023-03-14T03:56:48;96295.22;;;7.88;100.00
21431;BME280;10876;49.038;10.608;2023-03-14T03:59:15;96318.59;;;7.89;100.00
21431;BME280;10876;49.038;10.608;2023-03-14T04:01:41;96313.84;;;7.86;100.00
21431;BME280;10876;49.038;10.608;2023-03-14T04:04:08;96320.81;;;7.67;100.00
21431;BME280;10876;49.038;10.608;2023-03-14T04:06:36;96331.50;;;7.60;100.00
21431;BME280;10876;49.038;10.608;2023-03-14T04:09:03;96325.53;;;7.55;100.00
21431;BME280;10876;49.038;10.608;2023-03-14T04:11:30;96336.34;;;7.51;100.00
21431;BME280;10876;49.038;10.608;2023-03-14T04:13:57;96345.66;;;7.50;100.00
21431;BME280;10876;49.038;10.608;2023-03-14T04:16:24;96350.03;;;7.39;100.00
21431;BME280;10876;49.038;10.608;2023-03-14T04:18:51;96346.16;;;7.40;100.00
21431;BME280;10876;49.038;10.608;2023-03-14T04:21:18;96349.91;;;7.35;100.00
21431;BME280;10876;49.038;10.608;2023-03-14T04:23:46;96359.31;;;7.38;100.00
21431;BME280;10876;49.038;10.608;2023-03-14T04:26:14;96371.47;;;7.40;100.00
21431;BME280;10876;49.038;10.608;2023-03-14T04:28:41;96380.41;;;7.41;100.00
21431;BME280;10876;49.038;10.608;2023-03-14T04:31:08;96385.44;;;7.55;100.00
21431;BME280;10876;49.038;10.608;2023-03-14T04:33:35;96387.63;;;7.49;100.00
21431;BME280;10876;49.038;10.608;2023-03-14T04:36:03;96388.78;;;7.48;100.00
21431;BME280;10876;49.038;10.608;2023-03-14T04:38:30;96385.84;;;7.41;100.00
21431;BME280;10876;49.038;10.608;2023-03-14T04:40:58;96377.69;;;7.41;100.00
21431;BME280;10876;49.038;10.608;2023-03-14T04:43:25;96376.13;;;7.40;100.00
21431;BME280;10876;49.038;10.608;2023-03-14T04:45:53;96381.22;;;7.41;100.00
21431;BME280;10876;49.038;10.608;2023-03-14T04:48:20;96389.81;;;7.43;100.00
21431;BME280;10876;49.038;10.608;2023-03-14T04:50:47;96393.69;;;7.42;100.00
21431;BME280;10876;49.038;10.608;2023-03-14T04:53:14;96388.03;;;7.35;100.00
21431;BME280;10876;49.038;10.608;2023-03-14T04:55:41;96392.84;;;7.26;100.00
21431;BME280;10876;49.038;10.608;2023-03-14T04:58:09;96391.81;;;7.31;100.00
21431;BME280;10876;49.038;10.608;2023-03-14T05:00:35;96392.97;;;7.30;100.00
21431;BME280;10876;49.038;10.608;2023-03-14T05:03:02;96390.34;;;7.33;100.00
21431;BME280;10876;49.038;10.608;2023-03-14T05:05:29;96397.44;;;7.38;100.00
21431;BME280;10876;49.038;10.608;2023-03-14T05:07:56;96383.41;;;7.36;100.00
21431;BME280;10876;49.038;10.608;2023-03-14T05:10:22;96388.84;;;7.36;100.00
21431;BME280;10876;49.038;10.608;2023-03-14T05:12:49;96388.84;;;7.36;100.00
21431;BME280;10876;49.038;10.608;2023-03-14T05:15:17;96378.91;;;7.43;100.00
21431;BME280;10876;49.038;10.608;2023-03-14T05:17:44;96372.94;;;7.38;100.00
21431;BME280;10876;49.038;10.608;2023-03-14T05:20:12;96377.25;;;7.39;100.00
21431;BME280;10876;49.038;10.608;2023-03-14T05:22:39;96367.94;;;7.40;100.00
21431;BME280;10876;49.038;10.608;2023-03-14T05:25:06;96368.66;;;7.37;100.00
21431;BME280;10876;49.038;10.608;2023-03-14T05:27:34;96363.91;;;7.34;100.00
21431;BME280;10876;49.038;10.608;2023-03-14T05:30:00;96368.56;;;7.33;100.00
21431;BME280;10876;49.038;10.608;2023-03-14T05:32:29;96366.16;;;7.32;100.00
21431;BME280;10876;49.038;10.608;2023-03-14T05:34:55;96355.09;;;7.25;100.00
21431;BME280;10876;49.038;10.608;2023-03-14T05:37:24;96358.94;;;7.23;100.00
21431;BME280;10876;49.038;10.608;2023-03-14T05:39:51;96355.09;;;7.25;100.00
21431;BME280;10876;49.038;10.608;2023-03-14T05:42:17;96356.69;;;7.26;100.00
21431;BME280;10876;49.038;10.608;2023-03-14T05:44:44;96365.00;;;7.17;100.00
21431;BME280;10876;49.038;10.608;2023-03-14T05:47:11;96363.06;;;7.17;100.00
21431;BME280;10876;49.038;10.608;2023-03-14T05:49:39;96359.91;;;7.15;100.00
21431;BME280;10876;49.038;10.608;2023-03-14T05:52:05;96358.75;;;7.16;100.00
21431;BME280;10876;49.038;10.608;2023-03-14T05:54:32;96362.63;;;7.15;100.00
21431;BME280;10876;49.038;10.608;2023-03-14T05:56:59;96369.28;;;7.18;100.00
21431;BME280;10876;49.038;10.608;2023-03-14T05:59:26;96362.72;;;7.19;100.00
21431;BME280;10876;49.038;10.608;2023-03-14T06:01:52;96355.34;;;7.19;100.00
21431;BME280;10876;49.038;10.608;2023-03-14T06:04:19;96359.63;;;7.20;100.00
21431;BME280;10876;49.038;10.608;2023-03-14T06:06:47;96345.59;;;7.18;100.00
21431;BME280;10876;49.038;10.608;2023-03-14T06:09:14;96347.34;;;7.27;100.00
21431;BME280;10876;49.038;10.608;2023-03-14T06:11:40;96343.97;;;7.30;100.00
21431;BME280;10876;49.038;10.608;2023-03-14T06:14:07;96349.66;;;7.25;100.00
21431;BME280;10876;49.038;10.608;2023-03-14T06:16:34;96352.81;;;7.27;100.00
21431;BME280;10876;49.038;10.608;2023-03-14T06:19:01;96346.94;;;7.25;100.00
21431;BME280;10876;49.038;10.608;2023-03-14T06:21:27;96351.69;;;7.28;100.00
21431;BME280;10876;49.038;10.608;2023-03-14T06:23:55;96348.19;;;7.43;100.00
21431;BME280;10876;49.038;10.608;2023-03-14T06:26:22;96353.00;;;7.50;100.00
21431;BME280;10876;49.038;10.608;2023-03-14T06:28:49;96365.06;;;7.49;100.00
21431;BME280;10876;49.038;10.608;2023-03-14T06:31:16;96363.31;;;7.56;100.00
21431;BME280;10876;49.038;10.608;2023-03-14T06:33:43;96365.69;;;7.58;100.00
21431;BME280;10876;49.038;10.608;2023-03-14T06:36:10;96362.38;;;7.64;100.00
21431;BME280;10876;49.038;10.608;2023-03-14T06:38:36;96346.81;;;7.65;100.00
21431;BME280;10876;49.038;10.608;2023-03-14T06:41:06;96341.91;;;7.71;100.00
21431;BME280;10876;49.038;10.608;2023-03-14T06:43:33;96324.59;;;7.79;100.00
21431;BME280;10876;49.038;10.608;2023-03-14T06:46:00;96337.06;;;7.80;100.00
21431;BME280;10876;49.038;10.608;2023-03-14T06:48:27;96342.00;;;7.90;100.00
21431;BME280;10876;49.038;10.608;2023-03-14T06:50:54;96326.69;;;8.01;100.00
21431;BME280;10876;49.038;10.608;2023-03-14T06:53:21;96325.16;;;8.04;100.00
21431;BME280;10876;49.038;10.608;2023-03-14T06:55:48;96314.00;;;8.09;100.00
21431;BME280;10876;49.038;10.608;2023-03-14T06:58:16;96311.44;;;8.16;100.00
21431;BME280;10876;49.038;10.608;2023-03-14T07:00:43;96295.88;;;8.17;100.00
21431;BME280;10876;49.038;10.608;2023-03-14T07:03:10;96297.03;;;8.16;100.00
21431;BME280;10876;49.038;10.608;2023-03-14T07:05:36;96293.66;;;8.22;100.00
21431;BME280;10876;49.038;10.608;2023-03-14T07:08:05;96295.88;;;8.17;100.00
21431;BME280;10876;49.038;10.608;2023-03-14T07:10:32;96285.03;;;8.20;100.00
21431;BME280;10876;49.038;10.608;2023-03-14T07:12:59;96275.53;;;8.30;100.00
21431;BME280;10876;49.038;10.608;2023-03-14T07:15:27;96262.59;;;8.27;100.00
21431;BME280;10876;49.038;10.608;2023-03-14T07:17:53;96265.75;;;8.29;100.00
21431;BME280;10876;49.038;10.608;2023-03-14T07:20:20;96251.66;;;8.43;100.00
21431;BME280;10876;49.038;10.608;2023-03-14T07:22:47;96239.25;;;8.45;100.00
21431;BME280;10876;49.038;10.608;2023-03-14T07:25:14;96235.88;;;8.52;100.00
21431;BME280;10876;49.038;10.608;2023-03-14T07:27:43;96228.78;;;8.47;100.00
21431;BME280;10876;49.038;10.608;2023-03-14T07:30:11;96244.44;;;8.50;100.00
21431;BME280;10876;49.038;10.608;2023-03-14T07:32:39;96252.88;;;8.45;100.00
21431;BME280;10876;49.038;10.608;2023-03-14T07:35:07;96255.41;;;8.54;100.00
21431;BME280;10876;49.038;10.608;2023-03-14T07:37:34;96257.06;;;8.59;100.00
21431;BME280;10876;49.038;10.608;2023-03-14T07:40:00;96236.94;;;8.67;100.00
21431;BME280;10876;49.038;10.608;2023-03-14T07:42:30;96240.38;;;8.64;100.00
21431;BME280;10876;49.038;10.608;2023-03-14T07:44:57;96244.72;;;8.65;100.00
21431;BME280;10876;49.038;10.608;2023-03-14T07:47:24;96222.16;;;8.68;100.00
21431;BME280;10876;49.038;10.608;2023-03-14T07:49:52;96212.88;;;8.72;100.00
21431;BME280;10876;49.038;10.608;2023-03-14T07:52:18;96212.97;;;8.76;100.00
21431;BME280;10876;49.038;10.608;2023-03-14T07:54:45;96211.53;;;8.82;100.00
21431;BME280;10876;49.038;10.608;2023-03-14T07:57:12;96193.69;;;8.88;100.00
21431;BME280;10876;49.038;10.608;2023-03-14T07:59:38;96185.31;;;9.00;100.00
21431;BME280;10876;49.038;10.608;2023-03-14T08:02:05;96159.00;;;9.38;100.00
21431;BME280;10876;49.038;10.608;2023-03-14T08:04:36;96148.97;;;9.73;100.00
21431;BME280;10876;49.038;10.608;2023-03-14T08:07:04;96133.53;;;9.84;100.00
21431;BME280;10876;49.038;10.608;2023-03-14T08:09:31;96127.50;;;10.01;100.00
21431;BME280;10876;49.038;10.608;2023-03-14T08:11:58;96117.19;;;9.87;100.00
21431;BME280;10876;49.038;10.608;2023-03-14T08:14:24;96096.59;;;10.27;100.00
21431;BME280;10876;49.038;10.608;2023-03-14T08:16:51;96072.69;;;10.24;100.00
21431;BME280;10876;49.038;10.608;2023-03-14T08:19:18;96071.13;;;10.23;100.00
21431;BME280;10876;49.038;10.608;2023-03-14T08:21:45;96047.78;;;10.70;100.00
21431;BME280;10876;49.038;10.608;2023-03-14T08:24:13;96032.78;;;11.05;100.00
21431;BME280;10876;49.038;10.608;2023-03-14T08:26:39;95994.28;;;11.46;100.00
21431;BME280;10876;49.038;10.608;2023-03-14T08:29:06;95998.13;;;11.34;100.00
21431;BME280;10876;49.038;10.608;2023-03-14T08:31:34;95978.59;;;11.39;100.00
21431;BME280;10876;49.038;10.608;2023-03-14T08:34:01;95979.50;;;11.68;100.00
21431;BME280;10876;49.038;10.608;2023-03-14T08:36:28;95980.06;;;11.22;100.00
21431;BME280;10876;49.038;10.608;2023-03-14T08:38:56;95968.41;;;11.47;100.00
21431;BME280;10876;49.038;10.608;2023-03-14T08:41:24;95963.03;;;11.72;100.00
21431;BME280;10876;49.038;10.608;2023-03-14T08:43:51;95983.16;;;11.14;100.00
21431;BME280;10876;49.038;10.608;2023-03-14T08:46:18;95997.09;;;10.91;100.00
21431;BME280;10876;49.038;10.608;2023-03-14T08:48:44;96013.63;;;11.05;100.00
21431;BME280;10876;49.038;10.608;2023-03-14T08:51:12;96008.38;;;11.48;100.00
21431;BME280;10876;49.038;10.608;2023-03-14T08:53:40;96000.25;;;11.69;100.00
21431;BME280;10876;49.038;10.608;2023-03-14T08:56:08;96003.91;;;12.02;100.00
21431;BME280;10876;49.038;10.608;2023-03-14T08:58:37;96003.81;;;11.84;100.00
21431;BME280;10876;49.038;10.608;2023-03-14T09:01:04;96009.38;;;11.95;100.00
21431;BME280;10876;49.038;10.608;2023-03-14T09:03:31;95997.66;;;12.09;100.00
21431;BME280;10876;49.038;10.608;2023-03-14T09:06:01;96015.94;;;11.76;100.00
21431;BME280;10876;49.038;10.608;2023-03-14T09:08:29;96020.25;;;11.81;100.00
21431;BME280;10876;49.038;10.608;2023-03-14T09:10:56;96026.97;;;11.87;100.00
21431;BME280;10876;49.038;10.608;2023-03-14T09:13:22;96052.06;;;11.92;100.00
21431;BME280;10876;49.038;10.608;2023-03-14T09:15:51;96071.94;;;11.75;100.00
21431;BME280;10876;49.038;10.608;2023-03-14T09:18:18;96101.66;;;11.62;100.00
21431;BME280;10876;49.038;10.608;2023-03-14T09:20:45;96086.66;;;11.45;100.00
21431;BME280;10876;49.038;10.608;2023-03-14T09:23:12;96096.41;;;11.39;100.00
21431;BME280;10876;49.038;10.608;2023-03-14T09:25:38;96111.56;;;11.22;100.00
21431;BME280;10876;49.038;10.608;2023-03-14T09:28:05;96136.31;;;11.37;100.00
21431;BME280;10876;49.038;10.608;2023-03-14T09:30:32;96158.59;;;11.32;100.00
21431;BME280;10876;49.038;10.608;2023-03-14T09:33:00;96173.84;;;11.33;100.00
21431;BME280;10876;49.038;10.608;2023-03-14T09:35:28;96164.50;;;11.37;100.00
21431;BME280;10876;49.038;10.608;2023-03-14T09:37:54;96185.66;;;11.37;100.00
21431;BME280;10876;49.038;10.608;2023-03-14T09:40:21;96145.44;;;11.55;100.00
21431;BME280;10876;49.038;10.608;2023-03-14T09:42:51;96169.78;;;11.60;100.00
21431;BME280;10876;49.038;10.608;2023-03-14T09:45:26;96216.75;;;11.59;100.00
21431;BME280;10876;49.038;10.608;2023-03-14T09:47:55;96204.81;;;11.85;100.00
21431;BME280;10876;49.038;10.608;2023-03-14T09:50:25;96214.66;;;11.93;100.00
21431;BME280;10876;49.038;10.608;2023-03-14T09:52:56;96284.06;;;11.97;100.00
21431;BME280;10876;49.038;10.608;2023-03-14T09:55:25;96307.13;;;11.89;100.00
21431;BME280;10876;49.038;10.608;2023-03-14T09:57:56;96323.22;;;11.94;100.00
21431;BME280;10876;49.038;10.608;2023-03-14T10:00:27;96377.69;;;11.95;100.00
21431;BME280;10876;49.038;10.608;2023-03-14T10:02:59;96434.25;;;12.07;100.00
21431;BME280;10876;49.038;10.608;2023-03-14T10:05:29;96511.97;;;12.18;100.00
21431;BME280;10876;49.038;10.608;2023-03-14T10:07:55;96599.56;;;12.01;100.00
21431;BME280;10876;49.038;10.608;2023-03-14T10:10:24;96645.66;;;11.88;100.00
21431;BME280;10876;49.038;10.608;2023-03-14T10:12:55;96665.38;;;11.97;100.00
21431;BME280;10876;49.038;10.608;2023-03-14T10:15:25;96683.94;;;12.07;100.00
21431;BME280;10876;49.038;10.608;2023-03-14T10:17:52;96717.41;;;12.16;100.00
21431;BME280;10876;49.038;10.608;2023-03-14T10:20:37;96744.84;;;12.16;100.00
21431;BME280;10876;49.038;10.608;2023-03-14T10:23:05;96785.09;;;12.35;100.00
21431;BME280;10876;49.038;10.608;2023-03-14T10:25:34;96818.50;;;12.68;100.00
21431;BME280;10876;49.038;10.608;2023-03-14T10:28:02;96843.53;;;12.62;100.00
21431;BME280;10876;49.038;10.608;2023-03-14T10:30:35;96868.22;;;12.36;100.00
21431;BME280;10876;49.038;10.608;2023-03-14T10:33:10;96891.84;;;11.94;100.00
21431;BME280;10876;49.038;10.608;2023-03-14T10:35:39;96889.34;;;11.86;100.00
21431;BME280;10876;49.038;10.608;2023-03-14T10:38:12;96918.84;;;11.73;100.00
21431;BME280;10876;49.038;10.608;2023-03-14T10:40:41;96925.88;;;11.70;100.00
21431;BME280;10876;49.038;10.608;2023-03-14T10:43:15;96935.13;;;11.62;100.00
21431;BME280;10876;49.038;10.608;2023-03-14T10:45:44;96930.50;;;11.66;100.00
21431;BME280;10876;49.038;10.608;2023-03-14T10:48:20;96949.03;;;11.92;100.00
21431;BME280;10876;49.038;10.608;2023-03-14T10:50:56;96951.66;;;12.28;100.00
21431;BME280;10876;49.038;10.608;2023-03-14T10:53:24;96949.97;;;12.46;100.00
21431;BME280;10876;49.038;10.608;2023-03-14T10:55:51;96955.22;;;12.32;100.00
21431;BME280;10876;49.038;10.608;2023-03-14T10:58:23;96952.53;;;12.58;100.00
21431;BME280;10876;49.038;10.608;2023-03-14T11:00:55;96956.75;;;12.79;100.00
21431;BME280;10876;49.038;10.608;2023-03-14T11:03:24;96955.19;;;13.31;100.00
21431;BME280;10876;49.038;10.608;2023-03-14T11:05:57;96949.94;;;13.49;100.00
21431;BME280;10876;49.038;10.608;2023-03-14T11:08:29;96952.38;;;13.58;100.00
21431;BME280;10876;49.038;10.608;2023-03-14T11:11:07;96932.19;;;14.58;100.00
21431;BME280;10876;49.038;10.608;2023-03-14T11:13:39;96945.81;;;14.03;100.00
21431;BME280;10876;49.038;10.608;2023-03-14T11:16:15;96950.47;;;13.62;100.00
21431;BME280;10876;49.038;10.608;2023-03-14T11:19:13;96956.59;;;13.21;100.00
21431;BME280;10876;49.038;10.608;2023-03-14T11:21:47;96967.81;;;13.09;100.00
21431;BME280;10876;49.038;10.608;2023-03-14T11:24:33;96961.75;;;12.96;100.00
21431;BME280;10876;49.038;10.608;2023-03-14T11:27:12;96965.66;;;12.95;100.00
21431;BME280;10876;49.038;10.608;2023-03-14T11:29:50;96968.84;;;12.97;100.00
21431;BME280;10876;49.038;10.608;2023-03-14T11:32:36;96975.81;;;12.91;100.00
21431;BME280;10876;49.038;10.608;2023-03-14T11:35:16;96970.19;;;12.84;100.00
21431;BME280;10876;49.038;10.608;2023-03-14T11:37:51;96963.00;;;12.76;100.00
21431;BME280;10876;49.038;10.608;2023-03-14T11:40:21;96970.09;;;12.77;100.00
21431;BME280;10876;49.038;10.608;2023-03-14T11:42:54;96954.06;;;13.66;100.00
21431;BME280;10876;49.038;10.608;2023-03-14T11:45:28;96950.22;;;13.14;100.00
21431;BME280;10876;49.038;10.608;2023-03-14T11:48:06;96970.63;;;13.39;100.00
21431;BME280;10876;49.038;10.608;2023-03-14T11:50:38;96959.00;;;13.53;100.00
21431;BME280;10876;49.038;10.608;2023-03-14T11:53:10;96960.88;;;13.45;100.00
21431;BME280;10876;49.038;10.608;2023-03-14T11:55:40;96947.31;;;13.29;100.00
21431;BME280;10876;49.038;10.608;2023-03-14T11:58:14;96970.84;;;13.27;100.00
21431;BME280;10876;49.038;10.608;2023-03-14T12:00:43;96960.38;;;13.10;100.00
21431;BME280;10876;49.038;10.608;2023-03-14T12:03:17;96953.44;;;13.19;100.00
21431;BME280;10876;49.038;10.608;2023-03-14T12:05:50;96958.84;;;13.12;100.00
21431;BME280;10876;49.038;10.608;2023-03-14T12:08:43;96963.03;;;13.02;100.00
21431;BME280;10876;49.038;10.608;2023-03-14T12:11:14;96962.59;;;13.00;100.00
21431;BME280;10876;49.038;10.608;2023-03-14T12:13:46;96969.34;;;12.80;100.00
21431;BME280;10876;49.038;10.608;2023-03-14T12:16:27;96974.00;;;12.76;100.00
21431;BME280;10876;49.038;10.608;2023-03-14T12:18:56;96983.41;;;12.75;100.00
21431;BME280;10876;49.038;10.608;2023-03-14T12:21:24;96982.19;;;12.99;100.00
21431;BME280;10876;49.038;10.608;2023-03-14T12:24:18;96991.78;;;13.08;100.00
21431;BME280;10876;49.038;10.608;2023-03-14T12:26:52;97001.91;;;13.04;100.00
21431;BME280;10876;49.038;10.608;2023-03-14T12:29:19;97015.44;;;12.67;100.00
21431;BME280;10876;49.038;10.608;2023-03-14T12:31:47;97026.88;;;12.46;100.00
21431;BME280;10876;49.038;10.608;2023-03-14T12:34:27;97043.81;;;12.29;100.00
21431;BME280;10876;49.038;10.608;2023-03-14T12:37:16;97052.06;;;11.90;100.00
21431;BME280;10876;49.038;10.608;2023-03-14T12:39:56;97054.81;;;11.90;100.00
21431;BME280;10876;49.038;10.608;2023-03-14T12:42:38;97055.72;;;11.78;100.00
21431;BME280;10876;49.038;10.608;2023-03-14T12:45:22;97059.81;;;11.68;100.00
21431;BME280;10876;49.038;10.608;2023-03-14T12:47:52;97056.31;;;11.52;100.00
21431;BME280;10876;49.038;10.608;2023-03-14T12:50:25;97040.91;;;11.63;100.00
21431;BME280;10876;49.038;10.608;2023-03-14T12:53:20;97037.78;;;11.45;100.00
21431;BME280;10876;49.038;10.608;2023-03-14T12:55:58;97031.63;;;11.33;100.00